x

Prince Edward Pt (45135) Wave Buoy

7:00am - Sat 22nd Nov 2014 All times are CST. -6 hours from GMT.

  • Sig Wave height 4.6ft
  • Peak Period 5s
  • Wind
    22mph, 31mph gusts
  • Sea Temp 49°f
  • Air Temp 34°f
  • Sea Pressure 1023.8mb
  • Prince Edward Pt
  • Prince Edward Pt

More Historic Weather Station data

Upgrade to MSW Pro to gain access to the past 30 days of data for over 8000 Wavebouys and Weather Stations around the globe.

Join Pro

Comparision Forecast

View Surf forecast
   
Sat 11/22 7:00am 4.5ft 5s 22 31 mph 1023.8mb 49f 34f
6:00am 5ft 6s 22 29 mph 1024.4mb 49f 34f
5:00am 5ft 6s 25 29 mph 1024.9mb 49f 33f
4:00am 5ft 6s 25 31 mph 1025.9mb 48f 33f
3:00am 5ft 5s 25 29 mph 1026.4mb 48f 33f
2:00am 5.5ft 7s 25 29 mph 1027.1mb 48f 32f
1:00am 6ft 6s 25 31 mph 1027.6mb 47f 32f
12:00am 6ft 7s 27 31 mph 1028.2mb 47f 32f
Fri 11/21 11:00pm 6.5ft 6s 22 29 mph 1028.2mb 47f 33f
10:00pm 6ft 6s 25 31 mph 1028.5mb 47f 33f
9:00pm 6.5ft 6s 25 31 mph 1029.1mb 47f 33f
8:00pm  -   -  27
mph
1029.2mb - 33f
7:00pm 5ft 6s 27 34 mph 1029.5mb 47f 33f
6:00pm 4.5ft 5s 22 31 mph 1029.5mb 47f 33f
5:00pm 3.5ft 4s 25 29 mph 1029.6mb 47f 32f
4:00pm 2.5ft 4s 20 27 mph 1029.7mb 47f 31f
3:00pm 2.5ft 3s 20 25 mph 1029.7mb 47f 30f
2:00pm 2ft 6s 16 20 mph 1029.3mb 47f 29f
1:00pm 2ft 6s 16 20 mph 1028.9mb 47f 28f
12:00pm 2ft 6s 13 18 mph 1028.6mb 45f 27f
11:00am 2.5ft 7s 13 18 mph 1028.2mb 45f 26f
10:00am 3ft 7s 11 16 mph 1028.3mb 44f 24f
9:00am 3.5ft 7s 11 16 mph 1027.6mb 44f 24f
8:00am 4.5ft 7s 18 25 mph 1026mb 44f 23f
6:00am 4.5ft 8s 18 25 mph 1022.8mb 44f 25f
4:00am 6ft 8s 20 25 mph 1018.9mb 44f 26f
3:00am 7ft 8s 22 29 mph 1017.3mb 44f 28f
1:00am 8ft 8s 25 29 mph 1015.6mb 44f 30f
12:00am 7ft 8s 27 34 mph 1014.5mb 44f 31f
Thu 11/20 11:00pm 8.5ft 8s 27 31 mph 1013.8mb 44f 31f
9:00pm 8.5ft 8s 27 34 mph 1012.7mb 44f 30f
8:00pm 10ft 8s 27 34 mph 1012.3mb 44f 31f
7:00pm 11.5ft 8s 31 40 mph 1011.9mb 44f 32f
6:00pm 11ft 8s 34 43 mph 1011.2mb 44f 32f
5:00pm 11ft 8s 34 43 mph 1010.6mb 44f 33f
4:00pm 13ft 8s 31 38 mph 1010mb 44f 33f
3:00pm 12.5ft 8s 36 45 mph 1009.2mb 44f 33f
2:00pm 12.5ft 10s 34 45 mph 1008.4mb 44f 33f
12:00pm 13ft 9s 36 45 mph 1008.6mb 45f 33f
10:00am 13.5ft 9s 34 43 mph 1008.5mb 45f 33f
9:00am 14ft 8s 36 45 mph 1008.2mb 45f 32f
8:00am 13ft 9s 36 45 mph 1007.7mb 44f 32f
6:00am 10ft 8s 31 43 mph 1006.8mb 44f 32f
5:00am 10ft 8s 29 34 mph 1006.8mb 44f 34f
4:00am 10ft 7s 29 34 mph 1007mb 44f 35f
3:00am 7.5ft 6s 31 38 mph 1006.5mb 44f 35f
2:00am 6.5ft 6s 36 40 mph 1007.4mb 44f 36f
1:00am 6.5ft 6s 34 43 mph 1007.2mb 46f 36f
12:00am 6.5ft 6s 31 40 mph 1006.3mb 46f 37f
Wed 11/19 11:00pm  -   -  31
mph
1007.1mb - 36f
10:00pm  -   -  29
mph
1008.1mb - 35f
9:00pm 6ft 5s 27 36 mph 1009.6mb 47f 33f
8:00pm 5.5ft 5s 29 36 mph 1010.9mb 47f 31f
6:00pm 5ft 5s 25 31 mph 1012.5mb 47f 29f
5:00pm 4.5ft 4s 25 29 mph 1013mb 47f 30f
4:00pm  -   -  20
mph
1013.6mb - 30f
3:00pm 4ft 6s 18 25 mph 1014.3mb 47f 29f
2:00pm 4.5ft 7s 18 25 mph 1015.3mb 46f 29f
1:00pm 5ft 6s 20 27 mph 1016.6mb 46f 28f
12:00pm 5.5ft 7s 22 29 mph 1017.3mb 46f 28f
11:00am 6ft 8s 22 27 mph 1017.9mb 47f 27f
10:00am 6ft 6s 27 34 mph 1018.6mb 47f 28f
9:00am  -   -  27
mph
- - -
8:00am 7.5ft 8s 27 36 mph 1019.6mb 48f 28f
7:00am 8ft 8s 27 36 mph 1019.3mb 48f 28f
6:00am 8.5ft 8s 29 36 mph 1018.2mb 48f 29f
5:00am 9ft 9s 29 43 mph 1016.5mb 48f 30f
4:00am 10ft 9s 31 38 mph 1016mb 48f 31f
3:00am 11.5ft 10s 36 45 mph 1015.1mb 49f 31f
2:00am  -   -  38
mph
- - 32f
1:00am 14ft 9s 40 49 mph 1014mb 49f 32f
12:00am 15ft 10s 43 54 mph 1011.9mb 49f 31f
Tue 11/18 11:00pm 16.5ft 10s 43 56 mph 1011.7mb 49f 31f
10:00pm 16ft 9s 45 54 mph 1010mb 49f 31f
9:00pm 15.5ft 8s 43 54 mph 1008.9mb 49f 31f
8:00pm 14ft 10s 43 56 mph 1009.3mb 49f 30f
7:00pm 12.5ft 9s 45 54 mph 1007.6mb 49f 29f
6:00pm 12ft 9s 40 47 mph 1007.6mb 49f 29f
5:00pm 12ft 10s 36 47 mph 1007.7mb 49f 30f
4:00pm 12.5ft 10s 36 49 mph 1007mb 49f 30f
3:00pm 14ft 10s 36 49 mph 1006.7mb 49f 29f